< < Back
Terminal Aerodrome Forecast


Current Version              Previous Versions:   1  2  3  4  5  6  7  8  9  

Terminal Aerodrome Forecast

734
FTUS44 KBMX 031720
TAFANB
TAF
KANB 031720Z 0318/0418 29004KT P6SM VCTS SCT040CB BKN250
     FM041000 22002KT 2SM BR SCT015
     FM041330 15003KT 4SM HZ SKC
     FM041430 00000KT P6SM SKC=



Latest METAR

229
SAUS70 KWBC 040700 RRF
MTRANB
METAR KANB 040653Z AUTO 00000KT 7SM CLR 22/20 A2998 RMK AO2 SLP141
T02170200


USA.gov is the U.S. government's official web portal to all federal, state and local government web resources and services.